createdAt,value
2023-01-26T10:09:23.464Z,37.00
2023-01-26T10:11:57.691Z,24.00
2023-01-26T10:14:34.703Z,28.50
2023-01-26T10:17:06.375Z,28.50
2023-01-26T10:19:40.242Z,32.25
2023-01-26T10:22:16.545Z,21.50
2023-01-26T10:24:50.281Z,30.00
2023-01-26T10:27:19.151Z,36.00
2023-01-26T10:29:47.568Z,24.75
2023-01-26T10:32:18.845Z,22.50
2023-01-26T10:34:50.119Z,22.50
2023-01-26T10:37:22.994Z,25.25
2023-01-26T10:40:04.389Z,27.25
2023-01-26T10:42:34.201Z,19.50
2023-01-26T10:45:04.419Z,25.75
2023-01-26T10:47:33.420Z,18.75
2023-01-26T10:50:21.237Z,20.25
2023-01-26T10:53:00.986Z,19.00
2023-01-26T10:55:33.057Z,23.50
2023-01-26T10:58:02.742Z,25.00
2023-01-26T11:00:33.759Z,28.25
2023-01-26T11:03:08.108Z,20.75
2023-01-26T11:05:36.557Z,30.25
2023-01-26T11:08:07.076Z,35.75
2023-01-26T11:10:38.704Z,15.25
2023-01-26T11:13:16.602Z,25.50
2023-01-26T11:15:48.676Z,27.00
2023-01-26T11:18:33.835Z,24.50
2023-01-26T11:21:07.290Z,21.25
2023-01-26T11:23:47.401Z,27.50
2023-01-26T11:26:54.108Z,27.50
2023-01-26T11:29:47.795Z,26.25
2023-01-26T11:32:23.865Z,31.50
2023-01-26T11:35:04.962Z,25.50
2023-01-26T11:37:56.554Z,27.50
2023-01-26T11:40:38.325Z,26.75
2023-01-26T11:43:30.090Z,24.00
2023-01-26T11:46:28.472Z,25.00
2023-01-26T11:49:16.649Z,38.00
2023-01-26T11:51:58.218Z,36.00
2023-01-26T11:54:42.393Z,39.75
2023-01-26T11:57:23.448Z,43.50
2023-01-26T11:59:58.497Z,37.50
2023-01-26T12:02:32.828Z,31.00
2023-01-26T12:05:05.940Z,25.00
2023-01-26T12:07:51.572Z,28.00
2023-01-26T12:10:26.037Z,36.75
2023-01-26T12:13:01.548Z,26.75
2023-01-26T12:15:35.344Z,34.00
2023-01-26T12:18:15.502Z,35.50
2023-01-26T12:20:46.867Z,23.25
2023-01-26T12:23:29.780Z,24.75
2023-01-26T12:26:01.598Z,28.50
2023-01-26T12:28:36.046Z,34.50
2023-01-26T12:31:11.204Z,31.50
2023-01-26T12:33:41.300Z,25.50
2023-01-26T12:36:23.386Z,30.75
2023-01-26T12:39:08.184Z,50.75
2023-01-26T12:41:58.512Z,79.00
2023-01-26T12:44:37.039Z,35.00
2023-01-26T12:47:14.998Z,26.50
2023-01-26T12:49:51.791Z,26.50
2023-01-26T12:52:24.872Z,37.00
2023-01-26T12:54:59.815Z,24.75
2023-01-26T12:57:34.891Z,15.50
2023-01-26T13:00:19.216Z,21.25
2023-01-26T13:02:49.616Z,19.50
2023-01-26T13:05:28.733Z,23.00
2023-01-26T13:07:57.013Z,12.75
2023-01-26T13:10:47.117Z,20.50
2023-01-26T13:13:30.322Z,18.50
2023-01-26T13:16:34.596Z,17.25
2023-01-26T13:19:04.237Z,15.25
2023-01-26T13:21:45.653Z,15.75
2023-01-26T13:24:43.276Z,19.00
2023-01-26T13:27:30.991Z,18.00
2023-01-26T13:29:59.775Z,19.50
2023-01-26T13:32:54.413Z,13.25
2023-01-26T13:35:25.664Z,19.50
2023-01-26T13:38:01.260Z,19.25
2023-01-26T13:40:34.530Z,24.75
2023-01-26T13:43:25.259Z,30.75
2023-01-26T13:46:13.880Z,20.50
2023-01-26T13:48:48.132Z,21.00
2023-01-26T13:51:22.611Z,21.50
2023-01-26T13:53:59.106Z,24.50
2023-01-26T13:56:30.721Z,22.50
2023-01-26T13:59:13.763Z,30.50
2023-01-26T14:01:44.264Z,23.00
2023-01-26T14:04:16.009Z,17.00
2023-01-26T14:06:48.990Z,12.25
2023-01-26T14:09:19.505Z,12.00
2023-01-26T14:11:57.162Z,26.75
2023-01-26T14:14:28.557Z,14.00
2023-01-26T14:16:59.323Z,16.00
2023-01-26T14:19:29.221Z,18.25
2023-01-26T14:22:00.201Z,14.75
2023-01-26T14:24:35.111Z,14.25
2023-01-26T14:27:03.878Z,13.00
2023-01-26T14:29:32.320Z,15.75
2023-01-26T14:32:01.540Z,34.50
2023-01-26T14:34:32.051Z,18.25
2023-01-26T14:37:08.519Z,26.75
2023-01-26T14:39:38.277Z,14.25
2023-01-26T14:42:07.342Z,14.00
2023-01-26T14:44:36.338Z,22.75
2023-01-26T14:47:10.999Z,23.75
2023-01-26T14:49:45.924Z,18.50
2023-01-26T14:52:25.284Z,16.50
2023-01-26T14:54:56.702Z,27.50
2023-01-26T14:57:27.461Z,11.50
2023-01-26T14:59:58.483Z,18.00
2023-01-26T15:02:28.860Z,23.00
2023-01-26T15:05:01.245Z,22.50
2023-01-26T15:07:36.115Z,11.00
2023-01-26T15:10:27.577Z,21.50
2023-01-26T15:13:01.130Z,15.00
2023-01-26T15:15:32.321Z,21.50
2023-01-26T15:18:06.085Z,40.00
2023-01-26T15:20:43.162Z,12.00
2023-01-26T15:23:30.853Z,18.00
2023-01-26T15:26:08.599Z,23.25
2023-01-26T15:28:38.696Z,11.75
2023-01-26T15:31:08.235Z,16.00
2023-01-26T15:33:42.032Z,15.25
2023-01-26T15:36:24.011Z,14.25
2023-01-26T15:38:53.462Z,11.50
2023-01-26T15:41:23.222Z,22.50
2023-01-26T15:43:51.475Z,20.00
2023-01-26T15:46:19.797Z,25.00
2023-01-26T15:48:48.181Z,14.00
2023-01-26T15:51:17.022Z,14.00
2023-01-26T15:53:45.301Z,21.25
2023-01-26T15:56:15.422Z,19.25
2023-01-26T15:58:45.140Z,19.50
2023-01-26T16:01:21.424Z,14.50
2023-01-26T16:03:50.262Z,19.00
2023-01-26T16:06:25.312Z,21.75
2023-01-26T16:08:54.000Z,25.25
2023-01-26T16:11:23.239Z,18.25
2023-01-26T16:14:02.930Z,15.50
2023-01-26T16:16:32.759Z,18.75
2023-01-26T16:19:01.531Z,17.75
2023-01-26T16:21:33.298Z,16.00
2023-01-26T16:24:02.517Z,11.75
2023-01-26T16:26:31.850Z,19.25
2023-01-26T16:29:01.830Z,24.25
2023-01-26T16:31:32.649Z,18.25
2023-01-26T16:34:01.380Z,14.50
2023-01-26T16:36:30.232Z,18.25
2023-01-26T16:38:58.532Z,15.75
2023-01-26T16:41:28.252Z,22.00
2023-01-26T16:43:58.573Z,14.50
2023-01-26T16:46:30.400Z,14.00
2023-01-26T16:48:58.921Z,18.25
2023-01-26T16:51:30.538Z,20.00
2023-01-26T16:53:59.627Z,19.50
2023-01-26T16:56:28.751Z,20.00
2023-01-26T16:58:57.199Z,16.00
2023-01-26T17:01:28.435Z,10.25
2023-01-26T17:03:58.301Z,15.75
2023-01-26T17:06:27.012Z,23.75
2023-01-26T17:08:55.684Z,15.75
2023-01-26T17:11:27.770Z,16.75
2023-01-26T17:13:57.121Z,19.75
2023-01-26T17:16:29.650Z,17.00
2023-01-26T17:18:59.487Z,18.00
2023-01-26T17:21:28.065Z,12.25
2023-01-26T17:23:58.933Z,27.50
2023-01-26T17:26:27.501Z,18.50
2023-01-26T17:28:56.994Z,23.75
2023-01-26T17:31:26.539Z,22.00
2023-01-26T17:33:56.130Z,20.50
2023-01-26T17:36:25.824Z,21.00
2023-01-26T17:38:54.412Z,37.00
2023-01-26T17:41:22.755Z,42.25
2023-01-26T17:43:51.413Z,51.50
2023-01-26T17:46:21.867Z,23.50
2023-01-26T17:48:50.952Z,49.00
2023-01-26T17:51:21.028Z,19.75
2023-01-26T17:53:51.743Z,48.75
2023-01-26T17:56:21.838Z,36.75
2023-01-26T17:58:51.659Z,41.25
2023-01-26T18:01:21.651Z,42.50
2023-01-26T18:03:50.472Z,39.25
2023-01-26T18:06:19.143Z,39.50
2023-01-26T18:08:48.524Z,30.00
2023-01-26T18:11:18.376Z,36.75
2023-01-26T18:13:46.801Z,39.25
2023-01-26T18:16:18.092Z,46.25
2023-01-26T18:18:47.076Z,26.00
2023-01-26T18:21:17.769Z,34.00
2023-01-26T18:23:47.514Z,21.50
2023-01-26T18:26:18.429Z,25.50
2023-01-26T18:28:46.919Z,22.50
2023-01-26T18:31:17.946Z,15.75
2023-01-26T18:33:46.984Z,26.75
2023-01-26T18:36:17.443Z,44.75
2023-01-26T18:38:50.396Z,20.50
2023-01-26T18:41:26.165Z,28.75
2023-01-26T18:43:57.917Z,30.25
2023-01-26T18:46:28.023Z,24.00
2023-01-26T18:49:00.636Z,18.50
2023-01-26T18:51:30.653Z,35.00
2023-01-26T18:53:59.423Z,23.75
2023-01-26T18:56:29.251Z,22.50
2023-01-26T18:58:57.593Z,26.00
2023-01-26T19:01:26.275Z,27.50
2023-01-26T19:03:58.784Z,30.75
2023-01-26T19:06:30.959Z,18.75
2023-01-26T19:09:01.360Z,35.25
2023-01-26T19:11:33.771Z,31.00
2023-01-26T19:14:03.402Z,31.75
2023-01-26T19:16:32.057Z,28.25
2023-01-26T19:19:00.466Z,35.25
2023-01-26T19:21:29.598Z,29.75
2023-01-26T19:24:02.527Z,36.50
2023-01-26T19:26:32.903Z,32.75
2023-01-26T19:29:01.668Z,36.75
2023-01-26T19:31:30.853Z,56.00
2023-01-26T19:34:00.782Z,73.75
2023-01-26T19:36:33.692Z,59.75
2023-01-26T19:39:02.455Z,65.50
2023-01-26T19:41:32.575Z,59.00
2023-01-26T19:44:01.005Z,91.00
2023-01-26T19:46:29.478Z,108.00
2023-01-26T19:48:57.771Z,78.50
2023-01-26T19:51:27.525Z,85.00
2023-01-26T19:53:57.543Z,86.75
2023-01-26T19:56:28.140Z,86.75
2023-01-26T19:58:59.803Z,70.75
2023-01-26T20:01:30.157Z,81.75
2023-01-26T20:04:00.196Z,80.25
2023-01-26T20:06:30.793Z,92.00
2023-01-26T20:09:00.344Z,82.75
2023-01-26T20:11:29.837Z,83.00
2023-01-26T20:14:01.691Z,71.00
2023-01-26T20:16:30.742Z,83.00
2023-01-26T20:19:00.136Z,34.00
2023-01-26T20:21:29.717Z,78.00
2023-01-26T20:23:58.150Z,54.75
2023-01-26T20:26:28.595Z,57.00
2023-01-26T20:28:58.349Z,66.25
2023-01-26T20:31:28.872Z,67.75
2023-01-26T20:33:58.437Z,64.00
2023-01-26T20:36:29.325Z,61.75
2023-01-26T20:38:57.693Z,71.25
2023-01-26T20:41:29.481Z,71.25
2023-01-26T20:44:01.601Z,69.50
2023-01-26T20:46:34.592Z,56.75
2023-01-26T20:49:03.764Z,60.50
2023-01-26T20:51:35.939Z,61.00
2023-01-26T20:54:07.405Z,71.50
2023-01-26T20:56:36.672Z,61.75
2023-01-26T20:59:05.922Z,57.50
2023-01-26T21:01:36.629Z,69.50
2023-01-26T21:04:06.639Z,56.75
2023-01-26T21:06:35.870Z,65.75
2023-01-26T21:09:06.187Z,65.00
2023-01-26T21:11:35.379Z,73.00
2023-01-26T21:14:04.388Z,65.25
2023-01-26T21:16:36.144Z,74.75
2023-01-26T21:19:04.558Z,67.00
2023-01-26T21:21:32.946Z,81.00
2023-01-26T21:24:01.375Z,59.50
2023-01-26T21:26:29.942Z,68.25
2023-01-26T21:29:00.116Z,77.75
2023-01-26T21:31:30.960Z,70.25
2023-01-26T21:34:01.554Z,69.25
2023-01-26T21:36:32.301Z,71.00
2023-01-26T21:39:01.875Z,74.25
2023-01-26T21:41:49.718Z,71.25
2023-01-26T21:44:20.387Z,70.00
2023-01-26T21:46:50.745Z,74.00
2023-01-26T21:49:21.379Z,72.50
2023-01-26T21:52:07.421Z,64.00
2023-01-26T21:54:36.092Z,66.75
2023-01-26T21:57:26.030Z,60.00
2023-01-26T21:59:53.530Z,62.50
2023-01-26T22:02:22.322Z,72.50
2023-01-26T22:04:52.690Z,69.25
2023-01-26T22:07:23.087Z,73.25
2023-01-26T22:09:51.390Z,50.50
2023-01-26T22:12:19.671Z,80.00
2023-01-26T22:14:47.938Z,78.75
2023-01-26T22:17:16.230Z,77.50
2023-01-26T22:19:44.504Z,76.75
2023-01-26T22:22:14.387Z,56.25
2023-01-26T22:24:42.630Z,74.00
2023-01-26T22:27:10.979Z,73.00
2023-01-26T22:29:39.254Z,63.75
2023-01-26T22:32:07.679Z,74.25
2023-01-26T22:34:36.007Z,80.00
2023-01-26T22:37:04.368Z,85.25
2023-01-26T22:39:34.264Z,78.25
2023-01-26T22:42:02.543Z,71.50
2023-01-26T22:44:30.854Z,74.25
2023-01-26T22:46:59.253Z,77.75
2023-01-26T22:49:27.548Z,71.25
2023-01-26T22:51:56.276Z,78.25
2023-01-26T22:54:24.872Z,74.75
2023-01-26T22:56:54.591Z,67.00
2023-01-26T22:59:22.886Z,68.75
2023-01-26T23:01:51.138Z,59.00
2023-01-26T23:04:19.541Z,56.50
2023-01-26T23:06:47.866Z,69.75
2023-01-26T23:09:16.245Z,71.50
2023-01-26T23:11:44.876Z,69.00
2023-01-26T23:14:14.551Z,62.00
2023-01-26T23:16:42.998Z,49.25
2023-01-26T23:19:11.375Z,48.50
2023-01-26T23:21:39.641Z,74.00
2023-01-26T23:24:09.137Z,58.50
2023-01-26T23:26:37.507Z,72.00
2023-01-26T23:29:05.864Z,57.25
2023-01-26T23:31:35.504Z,78.50
2023-01-26T23:34:03.921Z,74.25
2023-01-26T23:36:32.277Z,71.25
2023-01-26T23:39:01.165Z,80.00
2023-01-26T23:41:29.461Z,69.50
2023-01-26T23:43:57.744Z,74.50
2023-01-26T23:46:26.101Z,70.25
2023-01-26T23:48:55.795Z,73.25
2023-01-26T23:51:24.129Z,78.25
2023-01-26T23:53:52.452Z,72.00
2023-01-26T23:56:20.708Z,77.00
2023-01-26T23:58:49.014Z,73.00
